createdAt,value
2022-09-17T01:10:52.189Z,11.07
2022-09-17T01:14:09.724Z,9.90
2022-09-17T01:17:59.589Z,10.55
2022-09-17T01:21:08.213Z,10.93
2022-09-17T10:35:05.929Z,0.85
2022-09-17T10:37:57.749Z,0.98
2022-09-17T10:40:45.025Z,1.20
2022-09-17T10:43:37.788Z,1.02
2022-09-17T10:49:24.998Z,0.80
2022-09-17T10:52:28.746Z,1.37
2022-09-17T10:55:24.622Z,0.90
2022-09-17T10:58:17.829Z,0.90
2022-09-17T11:01:26.150Z,1.30
2022-09-17T11:04:29.826Z,1.08
2022-09-17T11:07:49.693Z,1.23
2022-09-17T11:11:09.710Z,1.20
2022-09-17T11:14:11.906Z,1.12
2022-09-17T11:17:20.125Z,1.10
2022-09-17T11:20:24.735Z,1.23
2022-09-17T11:23:43.957Z,1.95
2022-09-17T11:26:49.748Z,1.00
2022-09-17T11:32:59.922Z,1.20
2022-09-17T11:36:01.210Z,1.00
2022-09-17T11:38:54.898Z,1.00
2022-09-17T11:41:49.913Z,1.50
2022-09-17T11:45:08.139Z,1.25
2022-09-17T11:48:07.169Z,1.25
2022-09-17T11:51:05.708Z,1.20
2022-09-17T11:54:00.959Z,1.10
2022-09-17T11:57:09.770Z,1.00
2022-09-17T12:00:02.728Z,1.40
2022-09-17T12:03:22.824Z,1.17
2022-09-17T12:06:19.721Z,1.20
2022-09-17T12:09:33.774Z,1.33
2022-09-17T12:12:47.759Z,1.00
2022-09-17T12:15:49.729Z,1.23
2022-09-17T12:18:47.256Z,1.30
2022-09-17T12:21:54.940Z,1.10
2022-09-17T12:24:50.716Z,1.15
2022-09-17T12:27:53.741Z,1.20
2022-09-17T12:30:50.859Z,1.10
2022-09-17T12:33:42.998Z,1.10
2022-09-17T12:36:50.278Z,1.00
2022-09-17T12:39:49.002Z,1.17
2022-09-17T12:43:23.748Z,1.48
2022-09-17T12:46:51.808Z,1.10
2022-09-17T12:50:03.387Z,1.17
2022-09-17T12:52:57.680Z,1.27
2022-09-17T12:55:58.887Z,1.00
2022-09-17T12:59:03.937Z,0.88
2022-09-17T13:01:56.751Z,1.20
2022-09-17T13:05:01.325Z,1.15
2022-09-17T13:07:58.729Z,1.30
2022-09-17T13:11:21.733Z,1.08
2022-09-17T13:14:30.013Z,0.90
2022-09-17T13:18:00.840Z,1.20
2022-09-17T13:21:02.272Z,0.90
2022-09-17T13:24:03.739Z,1.27
2022-09-17T13:26:59.712Z,1.30
2022-09-17T13:29:56.758Z,1.77
2022-09-17T13:32:54.720Z,1.40
2022-09-17T13:35:55.497Z,1.20
2022-09-17T21:46:14.776Z,1.02
2022-09-17T21:49:08.550Z,1.05
2022-09-17T21:51:55.590Z,1.10
2022-09-17T21:54:42.889Z,1.30
2022-09-17T21:57:29.981Z,1.20
2022-09-17T22:00:23.420Z,1.23
2022-09-17T22:03:20.041Z,1.00
2022-09-17T22:06:15.014Z,1.30
2022-09-17T22:09:03.146Z,1.33
2022-09-17T22:11:51.933Z,1.30
2022-09-17T22:14:39.094Z,1.12
2022-09-17T22:17:31.529Z,1.10
2022-09-17T22:20:19.634Z,1.02
2022-09-17T22:23:07.003Z,1.00
2022-09-17T22:26:08.868Z,1.00
2022-09-17T22:31:46.657Z,1.00
2022-09-17T22:34:32.902Z,1.30
2022-09-17T22:37:20.323Z,1.17
2022-09-17T22:40:09.700Z,1.33
2022-09-17T22:42:56.684Z,1.30
2022-09-17T22:45:43.069Z,1.15
2022-09-17T22:48:29.962Z,1.20
2022-09-17T22:51:17.752Z,1.27
2022-09-17T22:54:06.094Z,1.37
2022-09-17T22:56:52.786Z,1.62
2022-09-17T22:59:40.569Z,1.12
2022-09-17T23:02:28.222Z,1.48
2022-09-17T23:05:16.130Z,1.55
2022-09-17T23:08:03.688Z,1.70
2022-09-17T23:10:53.788Z,2.00
2022-09-17T23:13:40.105Z,1.50
2022-09-17T23:16:27.115Z,1.25
2022-09-17T23:19:15.625Z,1.40
2022-09-17T23:22:02.077Z,1.60
2022-09-17T23:24:50.032Z,1.52
2022-09-17T23:27:37.181Z,1.75
2022-09-17T23:30:25.169Z,1.33
2022-09-17T23:33:14.472Z,1.70
2022-09-17T23:36:09.287Z,1.20
2022-09-17T23:38:57.174Z,1.70
2022-09-17T23:41:45.696Z,1.60
2022-09-17T23:44:31.908Z,1.40
2022-09-17T23:47:18.317Z,1.33
2022-09-17T23:50:05.576Z,1.30
2022-09-17T23:52:52.773Z,1.60
2022-09-17T23:55:46.530Z,1.42
2022-09-17T23:58:33.658Z,1.83
